sensor_id;sensor_type;location;lat;lon;timestamp;P1;durP1;ratioP1;P2;durP2;ratioP2
40955;SDS011;26687;48.254;11.454;2022-09-02T00:00:29;3.10;;;2.67;;
40955;SDS011;26687;48.254;11.454;2022-09-02T00:03:33;3.92;;;2.20;;
40955;SDS011;26687;48.254;11.454;2022-09-02T00:06:34;3.60;;;2.45;;
40955;SDS011;26687;48.254;11.454;2022-09-02T00:09:35;3.28;;;2.97;;
40955;SDS011;26687;48.254;11.454;2022-09-02T00:12:36;3.83;;;3.42;;
40955;SDS011;26687;48.254;11.454;2022-09-02T00:15:36;3.33;;;3.03;;
40955;SDS011;26687;48.254;11.454;2022-09-02T00:18:37;3.57;;;3.27;;
40955;SDS011;26687;48.254;11.454;2022-09-02T00:21:38;3.33;;;3.03;;
40955;SDS011;26687;48.254;11.454;2022-09-02T00:24:38;2.97;;;2.77;;
40955;SDS011;26687;48.254;11.454;2022-09-02T00:27:39;2.83;;;2.63;;
40955;SDS011;26687;48.254;11.454;2022-09-02T00:30:39;3.45;;;2.33;;
40955;SDS011;26687;48.254;11.454;2022-09-02T00:33:40;2.78;;;2.60;;
40955;SDS011;26687;48.254;11.454;2022-09-02T00:36:40;2.78;;;2.58;;
40955;SDS011;26687;48.254;11.454;2022-09-02T00:39:40;2.70;;;2.50;;
40955;SDS011;26687;48.254;11.454;2022-09-02T00:42:40;2.40;;;2.30;;
40955;SDS011;26687;48.254;11.454;2022-09-02T00:45:40;3.10;;;2.20;;
40955;SDS011;26687;48.254;11.454;2022-09-02T00:48:42;2.70;;;2.50;;
40955;SDS011;26687;48.254;11.454;2022-09-02T00:51:47;2.80;;;2.60;;
40955;SDS011;26687;48.254;11.454;2022-09-02T00:54:54;2.95;;;2.20;;
40955;SDS011;26687;48.254;11.454;2022-09-02T00:57:58;2.90;;;2.50;;
40955;SDS011;26687;48.254;11.454;2022-09-02T01:00:59;2.78;;;2.58;;
40955;SDS011;26687;48.254;11.454;2022-09-02T01:03:59;2.90;;;2.70;;
40955;SDS011;26687;48.254;11.454;2022-09-02T01:07:00;2.70;;;2.50;;
40955;SDS011;26687;48.254;11.454;2022-09-02T01:10:03;2.70;;;2.50;;
40955;SDS011;26687;48.254;11.454;2022-09-02T01:13:06;3.83;;;2.42;;
40955;SDS011;26687;48.254;11.454;2022-09-02T01:19:09;2.50;;;2.30;;
40955;SDS011;26687;48.254;11.454;2022-09-02T01:22:14;2.72;;;2.50;;
40955;SDS011;26687;48.254;11.454;2022-09-02T01:25:16;2.70;;;2.50;;
40955;SDS011;26687;48.254;11.454;2022-09-02T01:28:18;2.30;;;2.10;;
40955;SDS011;26687;48.254;11.454;2022-09-02T01:31:18;3.72;;;2.30;;
40955;SDS011;26687;48.254;11.454;2022-09-02T01:34:18;2.50;;;2.30;;
40955;SDS011;26687;48.254;11.454;2022-09-02T01:37:19;2.65;;;2.28;;
40955;SDS011;26687;48.254;11.454;2022-09-02T01:40:19;2.60;;;2.40;;
40955;SDS011;26687;48.254;11.454;2022-09-02T01:43:21;3.13;;;2.17;;
40955;SDS011;26687;48.254;11.454;2022-09-02T01:46:21;3.38;;;2.53;;
40955;SDS011;26687;48.254;11.454;2022-09-02T01:49:22;2.63;;;2.42;;
40955;SDS011;26687;48.254;11.454;2022-09-02T01:52:23;4.00;;;2.50;;
40955;SDS011;26687;48.254;11.454;2022-09-02T01:55:24;2.58;;;2.40;;
40955;SDS011;26687;48.254;11.454;2022-09-02T01:58:24;2.87;;;2.67;;
40955;SDS011;26687;48.254;11.454;2022-09-02T02:01:24;3.13;;;2.77;;
40955;SDS011;26687;48.254;11.454;2022-09-02T02:04:25;5.23;;;2.93;;
40955;SDS011;26687;48.254;11.454;2022-09-02T02:07:26;3.00;;;2.53;;
40955;SDS011;26687;48.254;11.454;2022-09-02T02:10:26;3.05;;;2.80;;
40955;SDS011;26687;48.254;11.454;2022-09-02T02:13:26;3.50;;;2.83;;
40955;SDS011;26687;48.254;11.454;2022-09-02T02:16:26;2.95;;;2.67;;
40955;SDS011;26687;48.254;11.454;2022-09-02T02:19:27;4.03;;;3.00;;
40955;SDS011;26687;48.254;11.454;2022-09-02T02:22:27;5.10;;;3.13;;
40955;SDS011;26687;48.254;11.454;2022-09-02T02:25:28;3.03;;;2.80;;
40955;SDS011;26687;48.254;11.454;2022-09-02T02:28:28;2.65;;;2.40;;
40955;SDS011;26687;48.254;11.454;2022-09-02T02:31:29;3.83;;;2.83;;
40955;SDS011;26687;48.254;11.454;2022-09-02T02:34:29;3.53;;;2.83;;
40955;SDS011;26687;48.254;11.454;2022-09-02T02:37:29;3.25;;;2.90;;
40955;SDS011;26687;48.254;11.454;2022-09-02T02:40:30;2.97;;;2.77;;
40955;SDS011;26687;48.254;11.454;2022-09-02T02:43:31;4.00;;;2.90;;
40955;SDS011;26687;48.254;11.454;2022-09-02T02:46:31;2.58;;;2.30;;
40955;SDS011;26687;48.254;11.454;2022-09-02T02:49:35;2.80;;;2.60;;
40955;SDS011;26687;48.254;11.454;2022-09-02T02:55:35;3.72;;;2.70;;
40955;SDS011;26687;48.254;11.454;2022-09-02T02:58:35;2.80;;;2.60;;
40955;SDS011;26687;48.254;11.454;2022-09-02T03:01:36;3.00;;;2.60;;
40955;SDS011;26687;48.254;11.454;2022-09-02T03:04:36;3.10;;;2.90;;
40955;SDS011;26687;48.254;11.454;2022-09-02T03:07:37;2.95;;;2.75;;
40955;SDS011;26687;48.254;11.454;2022-09-02T03:10:38;3.33;;;3.03;;
40955;SDS011;26687;48.254;11.454;2022-09-02T03:13:40;3.00;;;2.80;;
40955;SDS011;26687;48.254;11.454;2022-09-02T03:16:40;3.38;;;3.17;;
40955;SDS011;26687;48.254;11.454;2022-09-02T03:19:40;4.20;;;3.25;;
40955;SDS011;26687;48.254;11.454;2022-09-02T03:22:41;3.60;;;3.30;;
40955;SDS011;26687;48.254;11.454;2022-09-02T03:25:42;3.30;;;3.10;;
40955;SDS011;26687;48.254;11.454;2022-09-02T03:28:43;4.43;;;3.08;;
40955;SDS011;26687;48.254;11.454;2022-09-02T03:31:43;5.32;;;3.10;;
40955;SDS011;26687;48.254;11.454;2022-09-02T03:34:43;3.42;;;3.20;;
40955;SDS011;26687;48.254;11.454;2022-09-02T03:37:44;3.60;;;3.37;;
40955;SDS011;26687;48.254;11.454;2022-09-02T03:40:44;3.42;;;3.22;;
40955;SDS011;26687;48.254;11.454;2022-09-02T03:43:45;3.63;;;3.33;;
40955;SDS011;26687;48.254;11.454;2022-09-02T03:46:45;4.00;;;3.58;;
40955;SDS011;26687;48.254;11.454;2022-09-02T03:49:45;3.83;;;3.45;;
40955;SDS011;26687;48.254;11.454;2022-09-02T03:52:46;3.25;;;3.05;;
40955;SDS011;26687;48.254;11.454;2022-09-02T03:55:46;4.00;;;3.70;;
40955;SDS011;26687;48.254;11.454;2022-09-02T03:58:47;5.60;;;4.10;;
40955;SDS011;26687;48.254;11.454;2022-09-02T04:01:48;4.20;;;3.90;;
40955;SDS011;26687;48.254;11.454;2022-09-02T04:04:49;3.97;;;3.67;;
40955;SDS011;26687;48.254;11.454;2022-09-02T04:07:49;4.00;;;3.70;;
40955;SDS011;26687;48.254;11.454;2022-09-02T04:10:51;3.90;;;3.60;;
40955;SDS011;26687;48.254;11.454;2022-09-02T04:13:52;3.85;;;3.55;;
40955;SDS011;26687;48.254;11.454;2022-09-02T04:16:52;5.32;;;3.72;;
40955;SDS011;26687;48.254;11.454;2022-09-02T04:19:53;3.83;;;3.53;;
40955;SDS011;26687;48.254;11.454;2022-09-02T04:22:53;4.22;;;3.80;;
40955;SDS011;26687;48.254;11.454;2022-09-02T04:25:53;4.60;;;4.13;;
40955;SDS011;26687;48.254;11.454;2022-09-02T04:28:54;3.78;;;3.47;;
40955;SDS011;26687;48.254;11.454;2022-09-02T04:31:54;6.22;;;3.80;;
40955;SDS011;26687;48.254;11.454;2022-09-02T04:34:54;4.28;;;3.80;;
40955;SDS011;26687;48.254;11.454;2022-09-02T04:37:55;6.55;;;3.83;;
40955;SDS011;26687;48.254;11.454;2022-09-02T04:40:55;4.43;;;3.92;;
40955;SDS011;26687;48.254;11.454;2022-09-02T04:43:56;4.07;;;3.77;;
40955;SDS011;26687;48.254;11.454;2022-09-02T04:46:56;4.47;;;3.40;;
40955;SDS011;26687;48.254;11.454;2022-09-02T04:49:56;4.00;;;3.60;;
40955;SDS011;26687;48.254;11.454;2022-09-02T04:52:57;4.00;;;3.70;;
40955;SDS011;26687;48.254;11.454;2022-09-02T04:55:58;3.97;;;3.67;;
40955;SDS011;26687;48.254;11.454;2022-09-02T04:58:59;3.78;;;3.47;;
40955;SDS011;26687;48.254;11.454;2022-09-02T05:01:59;3.78;;;3.47;;
40955;SDS011;26687;48.254;11.454;2022-09-02T05:04:59;3.57;;;3.27;;
40955;SDS011;26687;48.254;11.454;2022-09-02T05:07:59;4.65;;;3.60;;
40955;SDS011;26687;48.254;11.454;2022-09-02T05:11:11;3.97;;;3.42;;
40955;SDS011;26687;48.254;11.454;2022-09-02T05:14:12;5.13;;;3.63;;
40955;SDS011;26687;48.254;11.454;2022-09-02T05:17:14;3.90;;;3.60;;
40955;SDS011;26687;48.254;11.454;2022-09-02T05:20:15;4.03;;;3.70;;
40955;SDS011;26687;48.254;11.454;2022-09-02T05:23:15;4.45;;;3.65;;
40955;SDS011;26687;48.254;11.454;2022-09-02T05:26:15;3.50;;;3.20;;
40955;SDS011;26687;48.254;11.454;2022-09-02T05:29:16;4.25;;;3.13;;
40955;SDS011;26687;48.254;11.454;2022-09-02T05:32:19;4.70;;;3.60;;
40955;SDS011;26687;48.254;11.454;2022-09-02T05:35:19;3.53;;;3.23;;
40955;SDS011;26687;48.254;11.454;2022-09-02T05:38:19;3.58;;;3.20;;
40955;SDS011;26687;48.254;11.454;2022-09-02T05:41:20;3.50;;;3.10;;
40955;SDS011;26687;48.254;11.454;2022-09-02T05:44:24;4.50;;;3.60;;
40955;SDS011;26687;48.254;11.454;2022-09-02T05:47:24;3.35;;;3.15;;
40955;SDS011;26687;48.254;11.454;2022-09-02T05:50:24;3.78;;;3.47;;
40955;SDS011;26687;48.254;11.454;2022-09-02T05:53:25;3.78;;;3.47;;
40955;SDS011;26687;48.254;11.454;2022-09-02T05:56:25;3.47;;;3.17;;
40955;SDS011;26687;48.254;11.454;2022-09-02T05:59:27;3.58;;;3.30;;
40955;SDS011;26687;48.254;11.454;2022-09-02T06:02:28;3.67;;;2.90;;
40955;SDS011;26687;48.254;11.454;2022-09-02T06:05:28;5.20;;;3.20;;
40955;SDS011;26687;48.254;11.454;2022-09-02T06:08:28;4.25;;;3.00;;
40955;SDS011;26687;48.254;11.454;2022-09-02T06:11:29;4.10;;;3.07;;
40955;SDS011;26687;48.254;11.454;2022-09-02T06:14:29;3.13;;;2.92;;
40955;SDS011;26687;48.254;11.454;2022-09-02T06:17:29;3.65;;;3.22;;
40955;SDS011;26687;48.254;11.454;2022-09-02T06:20:30;4.60;;;2.97;;
40955;SDS011;26687;48.254;11.454;2022-09-02T06:23:33;3.35;;;3.05;;
40955;SDS011;26687;48.254;11.454;2022-09-02T06:26:34;3.25;;;2.95;;
40955;SDS011;26687;48.254;11.454;2022-09-02T06:29:34;3.10;;;2.90;;
40955;SDS011;26687;48.254;11.454;2022-09-02T06:32:34;3.47;;;2.97;;
40955;SDS011;26687;48.254;11.454;2022-09-02T06:35:38;3.67;;;2.57;;
40955;SDS011;26687;48.254;11.454;2022-09-02T06:38:39;4.22;;;2.92;;
40955;SDS011;26687;48.254;11.454;2022-09-02T06:41:40;3.15;;;2.85;;
40955;SDS011;26687;48.254;11.454;2022-09-02T06:44:40;3.25;;;3.03;;
40955;SDS011;26687;48.254;11.454;2022-09-02T06:47:41;3.80;;;2.97;;
40955;SDS011;26687;48.254;11.454;2022-09-02T06:50:42;2.83;;;2.63;;
40955;SDS011;26687;48.254;11.454;2022-09-02T06:53:42;2.97;;;2.67;;
40955;SDS011;26687;48.254;11.454;2022-09-02T06:56:43;2.60;;;2.40;;
40955;SDS011;26687;48.254;11.454;2022-09-02T06:59:43;4.10;;;2.50;;
40955;SDS011;26687;48.254;11.454;2022-09-02T07:02:43;3.53;;;2.55;;
40955;SDS011;26687;48.254;11.454;2022-09-02T07:06:05;2.75;;;2.38;;
40955;SDS011;26687;48.254;11.454;2022-09-02T07:09:09;2.80;;;2.40;;
40955;SDS011;26687;48.254;11.454;2022-09-02T07:12:09;2.75;;;2.35;;
40955;SDS011;26687;48.254;11.454;2022-09-02T07:15:09;5.00;;;2.80;;
40955;SDS011;26687;48.254;11.454;2022-09-02T07:18:10;2.78;;;2.58;;
40955;SDS011;26687;48.254;11.454;2022-09-02T07:21:10;2.60;;;2.40;;
40955;SDS011;26687;48.254;11.454;2022-09-02T07:24:12;3.42;;;2.40;;
40955;SDS011;26687;48.254;11.454;2022-09-02T07:27:12;2.63;;;2.30;;
40955;SDS011;26687;48.254;11.454;2022-09-02T07:30:13;2.50;;;2.30;;
40955;SDS011;26687;48.254;11.454;2022-09-02T07:33:14;2.30;;;2.10;;
40955;SDS011;26687;48.254;11.454;2022-09-02T07:36:14;4.57;;;2.08;;
40955;SDS011;26687;48.254;11.454;2022-09-02T07:39:15;43.83;;;7.47;;
40955;SDS011;26687;48.254;11.454;2022-09-02T07:42:15;12.15;;;3.35;;
40955;SDS011;26687;48.254;11.454;2022-09-02T07:45:16;2.38;;;2.00;;
40955;SDS011;26687;48.254;11.454;2022-09-02T07:48:16;2.80;;;1.90;;
40955;SDS011;26687;48.254;11.454;2022-09-02T07:51:17;1.85;;;1.60;;
40955;SDS011;26687;48.254;11.454;2022-09-02T07:54:19;2.67;;;1.98;;
40955;SDS011;26687;48.254;11.454;2022-09-02T07:57:20;3.13;;;1.98;;
40955;SDS011;26687;48.254;11.454;2022-09-02T08:00:20;2.40;;;1.60;;
40955;SDS011;26687;48.254;11.454;2022-09-02T08:03:23;2.30;;;1.80;;
40955;SDS011;26687;48.254;11.454;2022-09-02T08:06:24;3.33;;;1.67;;
40955;SDS011;26687;48.254;11.454;2022-09-02T08:09:26;1.98;;;1.80;;
40955;SDS011;26687;48.254;11.454;2022-09-02T08:12:27;5.38;;;1.70;;
40955;SDS011;26687;48.254;11.454;2022-09-02T08:15:28;1.85;;;1.38;;
40955;SDS011;26687;48.254;11.454;2022-09-02T08:18:29;2.25;;;1.52;;
40955;SDS011;26687;48.254;11.454;2022-09-02T08:21:29;1.67;;;1.58;;
40955;SDS011;26687;48.254;11.454;2022-09-02T08:24:30;2.17;;;1.50;;
40955;SDS011;26687;48.254;11.454;2022-09-02T08:27:30;3.10;;;1.48;;
40955;SDS011;26687;48.254;11.454;2022-09-02T08:30:31;2.75;;;1.27;;
40955;SDS011;26687;48.254;11.454;2022-09-02T08:33:32;1.98;;;1.40;;
40955;SDS011;26687;48.254;11.454;2022-09-02T08:36:32;1.60;;;1.33;;
40955;SDS011;26687;48.254;11.454;2022-09-02T08:39:33;2.17;;;1.60;;
40955;SDS011;26687;48.254;11.454;2022-09-02T08:42:34;1.50;;;1.10;;
40955;SDS011;26687;48.254;11.454;2022-09-02T08:45:37;1.60;;;1.10;;
40955;SDS011;26687;48.254;11.454;2022-09-02T08:51:51;1.33;;;1.20;;
40955;SDS011;26687;48.254;11.454;2022-09-02T08:54:55;1.55;;;1.10;;
40955;SDS011;26687;48.254;11.454;2022-09-02T08:57:56;2.35;;;1.20;;
40955;SDS011;26687;48.254;11.454;2022-09-02T09:00:59;3.10;;;1.05;;
40955;SDS011;26687;48.254;11.454;2022-09-02T09:04:16;1.25;;;1.10;;
40955;SDS011;26687;48.254;11.454;2022-09-02T09:19:41;1.30;;;0.90;;
40955;SDS011;26687;48.254;11.454;2022-09-02T09:22:46;1.67;;;1.00;;
40955;SDS011;26687;48.254;11.454;2022-09-02T09:25:47;2.10;;;0.93;;
40955;SDS011;26687;48.254;11.454;2022-09-02T09:28:48;2.75;;;1.10;;
40955;SDS011;26687;48.254;11.454;2022-09-02T09:31:53;2.65;;;1.10;;
40955;SDS011;26687;48.254;11.454;2022-09-02T09:38:01;3.50;;;1.00;;
40955;SDS011;26687;48.254;11.454;2022-09-02T09:44:26;4.78;;;0.95;;
40955;SDS011;26687;48.254;11.454;2022-09-02T09:47:27;2.40;;;0.80;;
40955;SDS011;26687;48.254;11.454;2022-09-02T09:50:28;1.70;;;1.30;;
40955;SDS011;26687;48.254;11.454;2022-09-02T09:53:30;4.67;;;2.67;;
40955;SDS011;26687;48.254;11.454;2022-09-02T09:56:31;3.60;;;1.10;;
40955;SDS011;26687;48.254;11.454;2022-09-02T09:59:43;4.43;;;1.37;;
40955;SDS011;26687;48.254;11.454;2022-09-02T10:02:50;5.75;;;4.82;;
40955;SDS011;26687;48.254;11.454;2022-09-02T10:05:54;1.77;;;1.10;;
40955;SDS011;26687;48.254;11.454;2022-09-02T10:08:58;1.23;;;1.02;;
40955;SDS011;26687;48.254;11.454;2022-09-02T10:12:03;2.47;;;1.20;;
40955;SDS011;26687;48.254;11.454;2022-09-02T10:15:06;2.28;;;1.38;;
40955;SDS011;26687;48.254;11.454;2022-09-02T10:18:17;2.47;;;1.27;;
40955;SDS011;26687;48.254;11.454;2022-09-02T10:21:43;1.40;;;1.08;;
40955;SDS011;26687;48.254;11.454;2022-09-02T10:24:55;3.20;;;1.58;;
40955;SDS011;26687;48.254;11.454;2022-09-02T10:34:33;1.65;;;1.08;;
40955;SDS011;26687;48.254;11.454;2022-09-02T10:37:50;2.05;;;0.80;;
40955;SDS011;26687;48.254;11.454;2022-09-02T10:41:02;2.17;;;1.10;;
40955;SDS011;26687;48.254;11.454;2022-09-02T10:44:12;1.02;;;0.93;;
40955;SDS011;26687;48.254;11.454;2022-09-02T10:47:26;3.55;;;0.85;;
40955;SDS011;26687;48.254;11.454;2022-09-02T10:50:36;2.92;;;1.20;;
40955;SDS011;26687;48.254;11.454;2022-09-02T10:59:53;2.42;;;0.90;;
40955;SDS011;26687;48.254;11.454;2022-09-02T11:03:05;2.13;;;1.48;;
40955;SDS011;26687;48.254;11.454;2022-09-02T11:06:13;3.72;;;0.82;;
40955;SDS011;26687;48.254;11.454;2022-09-02T11:12:24;1.63;;;0.80;;
40955;SDS011;26687;48.254;11.454;2022-09-02T11:15:30;1.23;;;0.60;;
40955;SDS011;26687;48.254;11.454;2022-09-02T11:18:33;4.00;;;0.80;;
40955;SDS011;26687;48.254;11.454;2022-09-02T11:27:58;1.08;;;0.80;;
40955;SDS011;26687;48.254;11.454;2022-09-02T11:31:05;4.45;;;1.67;;
40955;SDS011;26687;48.254;11.454;2022-09-02T11:37:10;2.97;;;1.00;;
40955;SDS011;26687;48.254;11.454;2022-09-02T11:40:12;2.30;;;0.75;;
40955;SDS011;26687;48.254;11.454;2022-09-02T11:43:23;3.07;;;0.70;;
40955;SDS011;26687;48.254;11.454;2022-09-02T11:52:54;3.03;;;1.10;;
40955;SDS011;26687;48.254;11.454;2022-09-02T11:56:00;1.10;;;0.65;;
40955;SDS011;26687;48.254;11.454;2022-09-02T11:59:01;1.63;;;0.73;;
40955;SDS011;26687;48.254;11.454;2022-09-02T12:02:04;1.23;;;0.70;;
40955;SDS011;26687;48.254;11.454;2022-09-02T12:11:38;2.58;;;0.70;;
40955;SDS011;26687;48.254;11.454;2022-09-02T12:29:57;1.47;;;0.67;;
40955;SDS011;26687;48.254;11.454;2022-09-02T12:36:02;1.05;;;0.70;;
40955;SDS011;26687;48.254;11.454;2022-09-02T12:39:43;0.90;;;0.77;;
40955;SDS011;26687;48.254;11.454;2022-09-02T12:42:34;2.15;;;0.88;;
40955;SDS011;26687;48.254;11.454;2022-09-02T12:45:40;1.45;;;0.75;;
40955;SDS011;26687;48.254;11.454;2022-09-02T12:48:43;2.42;;;0.60;;
40955;SDS011;26687;48.254;11.454;2022-09-02T12:54:52;4.13;;;0.57;;
40955;SDS011;26687;48.254;11.454;2022-09-02T12:57:54;2.22;;;0.70;;
40955;SDS011;26687;48.254;11.454;2022-09-02T13:07:34;1.17;;;0.60;;
40955;SDS011;26687;48.254;11.454;2022-09-02T13:17:12;1.05;;;0.70;;
40955;SDS011;26687;48.254;11.454;2022-09-02T13:23:45;1.40;;;0.60;;
40955;SDS011;26687;48.254;11.454;2022-09-02T13:33:18;1.05;;;0.70;;
40955;SDS011;26687;48.254;11.454;2022-09-02T13:36:21;1.10;;;0.80;;
40955;SDS011;26687;48.254;11.454;2022-09-02T13:39:24;1.98;;;0.70;;
40955;SDS011;26687;48.254;11.454;2022-09-02T13:42:26;2.63;;;1.00;;
40955;SDS011;26687;48.254;11.454;2022-09-02T13:45:36;2.92;;;0.80;;
40955;SDS011;26687;48.254;11.454;2022-09-02T13:48:36;1.60;;;0.60;;
40955;SDS011;26687;48.254;11.454;2022-09-02T13:51:40;0.75;;;0.60;;
40955;SDS011;26687;48.254;11.454;2022-09-02T13:54:51;2.83;;;0.82;;
40955;SDS011;26687;48.254;11.454;2022-09-02T13:57:57;3.90;;;0.90;;
40955;SDS011;26687;48.254;11.454;2022-09-02T14:04:17;1.23;;;0.60;;
40955;SDS011;26687;48.254;11.454;2022-09-02T14:07:25;1.07;;;0.70;;
40955;SDS011;26687;48.254;11.454;2022-09-02T14:10:26;1.13;;;0.70;;
40955;SDS011;26687;48.254;11.454;2022-09-02T14:13:27;0.95;;;0.77;;
40955;SDS011;26687;48.254;11.454;2022-09-02T14:16:31;2.43;;;0.60;;
40955;SDS011;26687;48.254;11.454;2022-09-02T14:19:34;3.47;;;0.63;;
40955;SDS011;26687;48.254;11.454;2022-09-02T14:22:35;1.30;;;0.80;;
40955;SDS011;26687;48.254;11.454;2022-09-02T14:25:36;1.70;;;0.60;;
40955;SDS011;26687;48.254;11.454;2022-09-02T14:28:37;3.33;;;0.70;;
40955;SDS011;26687;48.254;11.454;2022-09-02T14:31:37;1.00;;;0.73;;
40955;SDS011;26687;48.254;11.454;2022-09-02T14:34:44;2.37;;;0.87;;
40955;SDS011;26687;48.254;11.454;2022-09-02T14:37:51;3.03;;;0.70;;
40955;SDS011;26687;48.254;11.454;2022-09-02T14:40:59;1.77;;;0.63;;
40955;SDS011;26687;48.254;11.454;2022-09-02T14:44:07;1.10;;;0.73;;
40955;SDS011;26687;48.254;11.454;2022-09-02T14:47:12;1.35;;;0.45;;
40955;SDS011;26687;48.254;11.454;2022-09-02T14:50:12;0.60;;;0.60;;
40955;SDS011;26687;48.254;11.454;2022-09-02T14:53:19;0.85;;;0.60;;
40955;SDS011;26687;48.254;11.454;2022-09-02T14:59:39;3.28;;;0.90;;
40955;SDS011;26687;48.254;11.454;2022-09-02T15:02:41;2.23;;;0.90;;
40955;SDS011;26687;48.254;11.454;2022-09-02T15:05:41;1.80;;;0.75;;
40955;SDS011;26687;48.254;11.454;2022-09-02T15:08:41;2.42;;;1.02;;
40955;SDS011;26687;48.254;11.454;2022-09-02T15:11:49;2.53;;;0.82;;
40955;SDS011;26687;48.254;11.454;2022-09-02T15:14:50;2.70;;;0.80;;
40955;SDS011;26687;48.254;11.454;2022-09-02T15:17:50;1.15;;;0.60;;
40955;SDS011;26687;48.254;11.454;2022-09-02T15:20:51;1.05;;;0.63;;
40955;SDS011;26687;48.254;11.454;2022-09-02T15:23:51;0.98;;;0.60;;
40955;SDS011;26687;48.254;11.454;2022-09-02T15:26:51;1.52;;;0.70;;
40955;SDS011;26687;48.254;11.454;2022-09-02T15:29:51;1.40;;;0.50;;
40955;SDS011;26687;48.254;11.454;2022-09-02T15:32:52;2.28;;;0.70;;
40955;SDS011;26687;48.254;11.454;2022-09-02T15:35:52;2.05;;;0.70;;
40955;SDS011;26687;48.254;11.454;2022-09-02T15:38:52;0.90;;;0.60;;
40955;SDS011;26687;48.254;11.454;2022-09-02T15:41:53;2.43;;;0.73;;
40955;SDS011;26687;48.254;11.454;2022-09-02T15:44:54;1.98;;;1.00;;
40955;SDS011;26687;48.254;11.454;2022-09-02T15:47:57;0.80;;;0.50;;
40955;SDS011;26687;48.254;11.454;2022-09-02T15:50:58;0.70;;;0.65;;
40955;SDS011;26687;48.254;11.454;2022-09-02T15:53:59;1.30;;;0.80;;
40955;SDS011;26687;48.254;11.454;2022-09-02T15:56:59;1.40;;;0.70;;
40955;SDS011;26687;48.254;11.454;2022-09-02T16:00:00;1.07;;;0.87;;
40955;SDS011;26687;48.254;11.454;2022-09-02T16:03:00;1.05;;;0.73;;
40955;SDS011;26687;48.254;11.454;2022-09-02T16:06:01;1.33;;;0.55;;
40955;SDS011;26687;48.254;11.454;2022-09-02T16:09:01;1.48;;;0.80;;
40955;SDS011;26687;48.254;11.454;2022-09-02T16:12:01;1.00;;;0.60;;
40955;SDS011;26687;48.254;11.454;2022-09-02T16:15:02;2.25;;;0.60;;
40955;SDS011;26687;48.254;11.454;2022-09-02T16:18:02;3.03;;;0.75;;
40955;SDS011;26687;48.254;11.454;2022-09-02T16:21:03;1.20;;;0.57;;
40955;SDS011;26687;48.254;11.454;2022-09-02T16:24:04;2.13;;;0.70;;
40955;SDS011;26687;48.254;11.454;2022-09-02T16:27:04;1.20;;;0.60;;
40955;SDS011;26687;48.254;11.454;2022-09-02T16:30:04;1.00;;;0.73;;
40955;SDS011;26687;48.254;11.454;2022-09-02T16:33:04;2.70;;;0.80;;
40955;SDS011;26687;48.254;11.454;2022-09-02T16:36:05;1.23;;;0.60;;
40955;SDS011;26687;48.254;11.454;2022-09-02T16:39:05;1.10;;;0.60;;
40955;SDS011;26687;48.254;11.454;2022-09-02T16:42:06;1.00;;;0.73;;
40955;SDS011;26687;48.254;11.454;2022-09-02T16:45:06;2.40;;;0.88;;
40955;SDS011;26687;48.254;11.454;2022-09-02T16:48:07;2.20;;;0.90;;
40955;SDS011;26687;48.254;11.454;2022-09-02T16:51:07;0.85;;;0.70;;
40955;SDS011;26687;48.254;11.454;2022-09-02T16:54:08;1.13;;;0.80;;
40955;SDS011;26687;48.254;11.454;2022-09-02T16:57:08;2.55;;;0.90;;
40955;SDS011;26687;48.254;11.454;2022-09-02T17:00:08;1.65;;;0.65;;
40955;SDS011;26687;48.254;11.454;2022-09-02T17:03:09;2.20;;;0.63;;
40955;SDS011;26687;48.254;11.454;2022-09-02T17:06:10;2.67;;;0.85;;
40955;SDS011;26687;48.254;11.454;2022-09-02T17:09:11;1.98;;;0.80;;
40955;SDS011;26687;48.254;11.454;2022-09-02T17:12:11;2.15;;;1.00;;
40955;SDS011;26687;48.254;11.454;2022-09-02T17:15:11;2.00;;;1.10;;
40955;SDS011;26687;48.254;11.454;2022-09-02T17:18:11;1.67;;;1.07;;
40955;SDS011;26687;48.254;11.454;2022-09-02T17:24:22;1.65;;;1.00;;
40955;SDS011;26687;48.254;11.454;2022-09-02T17:27:23;2.13;;;0.90;;
40955;SDS011;26687;48.254;11.454;2022-09-02T17:30:23;3.03;;;1.45;;
40955;SDS011;26687;48.254;11.454;2022-09-02T17:33:23;2.83;;;1.27;;
40955;SDS011;26687;48.254;11.454;2022-09-02T17:36:23;2.33;;;1.47;;
40955;SDS011;26687;48.254;11.454;2022-09-02T17:39:25;4.10;;;1.05;;
40955;SDS011;26687;48.254;11.454;2022-09-02T17:42:25;2.40;;;1.10;;
40955;SDS011;26687;48.254;11.454;2022-09-02T17:45:25;1.33;;;0.90;;
40955;SDS011;26687;48.254;11.454;2022-09-02T17:48:26;3.72;;;1.20;;
40955;SDS011;26687;48.254;11.454;2022-09-02T17:51:26;2.38;;;1.20;;
40955;SDS011;26687;48.254;11.454;2022-09-02T17:54:26;2.03;;;1.23;;
40955;SDS011;26687;48.254;11.454;2022-09-02T18:00:45;1.70;;;1.50;;
40955;SDS011;26687;48.254;11.454;2022-09-02T18:10:50;2.13;;;1.20;;
40955;SDS011;26687;48.254;11.454;2022-09-02T18:20:47;3.25;;;1.15;;
40955;SDS011;26687;48.254;11.454;2022-09-02T18:23:50;1.02;;;0.70;;
40955;SDS011;26687;48.254;11.454;2022-09-02T18:27:06;1.30;;;0.98;;
40955;SDS011;26687;48.254;11.454;2022-09-02T18:30:11;1.05;;;0.82;;
40955;SDS011;26687;48.254;11.454;2022-09-02T18:39:28;2.38;;;1.00;;
40955;SDS011;26687;48.254;11.454;2022-09-02T18:42:42;3.67;;;1.27;;
40955;SDS011;26687;48.254;11.454;2022-09-02T18:45:47;1.98;;;1.10;;
40955;SDS011;26687;48.254;11.454;2022-09-02T18:48:48;5.30;;;1.40;;
40955;SDS011;26687;48.254;11.454;2022-09-02T18:51:51;2.47;;;1.20;;
40955;SDS011;26687;48.254;11.454;2022-09-02T18:57:55;2.00;;;0.90;;
40955;SDS011;26687;48.254;11.454;2022-09-02T19:00:56;1.35;;;0.90;;
40955;SDS011;26687;48.254;11.454;2022-09-02T19:03:58;2.97;;;0.90;;
40955;SDS011;26687;48.254;11.454;2022-09-02T19:06:58;2.60;;;0.90;;
40955;SDS011;26687;48.254;11.454;2022-09-02T19:10:18;1.17;;;0.70;;
40955;SDS011;26687;48.254;11.454;2022-09-02T19:13:19;1.25;;;0.80;;
40955;SDS011;26687;48.254;11.454;2022-09-02T19:16:23;1.80;;;0.80;;
40955;SDS011;26687;48.254;11.454;2022-09-02T19:19:23;2.38;;;1.10;;
40955;SDS011;26687;48.254;11.454;2022-09-02T19:22:26;1.30;;;0.60;;
40955;SDS011;26687;48.254;11.454;2022-09-02T19:25:27;0.70;;;0.70;;
40955;SDS011;26687;48.254;11.454;2022-09-02T19:28:29;1.70;;;0.90;;
40955;SDS011;26687;48.254;11.454;2022-09-02T19:31:29;1.13;;;0.82;;
40955;SDS011;26687;48.254;11.454;2022-09-02T19:34:34;1.70;;;0.90;;
40955;SDS011;26687;48.254;11.454;2022-09-02T19:37:36;3.50;;;1.20;;
40955;SDS011;26687;48.254;11.454;2022-09-02T19:40:36;1.95;;;0.80;;
40955;SDS011;26687;48.254;11.454;2022-09-02T19:43:38;1.60;;;1.02;;
40955;SDS011;26687;48.254;11.454;2022-09-02T19:46:39;3.20;;;1.13;;
40955;SDS011;26687;48.254;11.454;2022-09-02T19:49:40;1.90;;;1.73;;
40955;SDS011;26687;48.254;11.454;2022-09-02T19:52:41;1.50;;;1.20;;
40955;SDS011;26687;48.254;11.454;2022-09-02T19:55:42;3.25;;;1.50;;
40955;SDS011;26687;48.254;11.454;2022-09-02T19:58:43;3.80;;;1.70;;
40955;SDS011;26687;48.254;11.454;2022-09-02T20:01:43;1.93;;;1.40;;
40955;SDS011;26687;48.254;11.454;2022-09-02T20:04:43;2.85;;;1.30;;
40955;SDS011;26687;48.254;11.454;2022-09-02T20:07:43;1.98;;;1.33;;
40955;SDS011;26687;48.254;11.454;2022-09-02T20:10:50;2.17;;;1.50;;
40955;SDS011;26687;48.254;11.454;2022-09-02T20:13:53;1.98;;;1.40;;
40955;SDS011;26687;48.254;11.454;2022-09-02T20:16:57;1.50;;;1.05;;
40955;SDS011;26687;48.254;11.454;2022-09-02T20:19:59;1.20;;;1.10;;
40955;SDS011;26687;48.254;11.454;2022-09-02T20:23:00;1.48;;;1.20;;
40955;SDS011;26687;48.254;11.454;2022-09-02T20:29:10;1.50;;;1.40;;